Time;durP1;ratioP1;P1;durP2;ratioP2;P2;SDS_P1;SDS_P2;PMS_P1;PMS_P2;Temp;Humidity;BMP_temperature;BMP_pressure;BME280_temperature;BME280_humidity;BME280_pressure;Samples;Min_cycle;Max_cycle;Signal;HPM_P1;HPM_P2
2021/08/06 00:01:59;;;;;;;9.38;1.85;;;18.20;57.90;;;;;;5096985;28;20027;-55
2021/08/06 00:04:44;;;;;;;3.33;1.55;;;18.40;57.70;;;;;;5091917;28;20039;-52
2021/08/06 00:07:18;;;;;;;2.30;1.50;;;18.50;57.20;;;;;;5091916;28;20506;-56
2021/08/06 00:09:57;;;;;;;3.47;1.35;;;18.60;57.20;;;;;;5099528;28;20539;-52
2021/08/06 00:12:27;;;;;;;3.45;1.20;;;18.70;57.00;;;;;;5097464;28;20039;-59
2021/08/06 00:14:55;;;;;;;4.05;1.58;;;18.80;56.50;;;;;;5092183;28;20103;-55
2021/08/06 00:17:25;;;;;;;1.42;0.98;;;18.90;55.50;;;;;;5082442;28;20036;-58
2021/08/06 00:20:01;;;;;;;4.22;1.02;;;18.90;56.40;;;;;;5109482;28;20674;-56
2021/08/06 00:22:32;;;;;;;1.17;1.00;;;19.00;55.90;;;;;;5104256;28;20040;-57
2021/08/06 00:25:23;;;;;;;3.15;0.98;;;19.00;56.20;;;;;;5108844;28;20067;-56
2021/08/06 00:27:55;;;;;;;3.13;1.13;;;19.10;55.80;;;;;;5109202;28;20051;-59
2021/08/06 00:30:29;;;;;;;2.92;1.00;;;19.20;55.90;;;;;;5107814;28;20047;-58
2021/08/06 00:32:59;;;;;;;2.42;1.20;;;19.30;55.70;;;;;;5109058;28;20046;-55
2021/08/06 00:35:27;;;;;;;1.92;0.95;;;19.30;55.30;;;;;;5108655;28;20446;-57
2021/08/06 00:38:00;;;;;;;3.55;0.98;;;19.40;55.60;;;;;;5111945;28;20032;-58
2021/08/06 00:40:35;;;;;;;4.32;1.35;;;19.40;55.10;;;;;;5110206;28;20020;-55
2021/08/06 00:43:12;;;;;;;3.47;1.10;;;19.50;54.90;;;;;;5108048;28;20020;-48
2021/08/06 00:45:39;;;;;;;3.05;1.15;;;19.50;53.10;;;;;;5107476;28;20117;-51
2021/08/06 00:48:15;;;;;;;6.25;1.60;;;19.40;54.10;;;;;;5107122;28;20038;-57
2021/08/06 00:50:42;;;;;;;2.63;1.15;;;19.40;54.40;;;;;;5107788;28;20063;-56
2021/08/06 00:53:13;;;;;;;6.70;1.67;;;19.30;55.10;;;;;;5107883;28;20028;-59
2021/08/06 00:55:43;;;;;;;9.55;1.30;;;19.40;55.50;;;;;;5107959;28;20166;-57
2021/08/06 00:58:16;;;;;;;6.57;1.67;;;19.50;55.60;;;;;;5108318;28;20031;-54
2021/08/06 01:01:03;;;;;;;5.53;0.90;;;19.60;55.20;;;;;;5107964;28;21195;-59
2021/08/06 01:07:10;;;;;;;1.95;1.08;;;19.70;55.30;;;;;;5089692;28;20092;-54
2021/08/06 01:10:03;;;;;;;4.32;0.90;;;19.90;54.40;;;;;;5108119;28;20059;-58
2021/08/06 01:12:55;;;;;;;4.50;1.30;;;20.00;54.30;;;;;;5105943;28;20063;-58
2021/08/06 01:15:37;;;;;;;;;;;20.00;54.60;;;;;;5108589;28;20390;-59
2021/08/06 01:18:14;;;;;;;6.25;1.02;;;20.00;54.10;;;;;;5107167;28;19907;-57
2021/08/06 01:20:57;;;;;;;2.58;1.10;;;20.10;54.90;;;;;;5107259;28;20027;-61
2021/08/06 01:23:32;;;;;;;1.60;0.70;;;20.10;54.60;;;;;;5089907;28;20028;-62
2021/08/06 01:26:22;;;;;;;7.78;1.20;;;20.20;53.40;;;;;;5107241;28;20027;-58
2021/08/06 01:28:54;;;;;;;4.15;1.02;;;20.30;54.00;;;;;;5106545;28;20136;-59
2021/08/06 01:31:31;;;;;;;6.18;2.05;;;20.40;54.50;;;;;;5106531;28;20405;-61
2021/08/06 01:34:04;;;;;;;2.40;1.10;;;20.40;53.70;;;;;;5107367;28;20583;-59
2021/08/06 01:36:32;;;;;;;3.90;1.08;;;20.50;54.30;;;;;;5106539;28;20450;-60
2021/08/06 01:39:00;;;;;;;16.92;1.30;;;20.40;54.50;;;;;;5107429;28;20031;-56
2021/08/06 01:41:57;;;;;;;6.13;1.20;;;20.60;54.10;;;;;;5106511;28;20032;-61
2021/08/06 01:44:33;;;;;;;3.28;1.10;;;20.60;52.70;;;;;;5107138;28;20051;-61
2021/08/06 01:47:38;;;;;;;5.03;1.20;;;20.70;54.50;;;;;;5096423;28;20031;-60
2021/08/06 01:50:20;;;;;;;1.92;0.90;;;20.80;52.40;;;;;;5100515;28;20039;-60
2021/08/06 01:53:16;;;;;;;4.47;1.00;;;20.90;53.40;;;;;;5097359;28;20216;-60
2021/08/06 01:56:00;;;;;;;2.38;1.40;;;20.90;54.00;;;;;;5081794;28;20127;-62
2021/08/06 01:58:40;;;;;;;8.40;0.90;;;21.00;52.00;;;;;;5104956;28;20035;-59
2021/08/06 02:01:13;;;;;;;5.68;1.63;;;21.00;52.80;;;;;;5077245;28;20027;-65
2021/08/06 02:03:43;;;;;;;4.57;1.10;;;21.00;54.10;;;;;;5100251;28;20045;-58
2021/08/06 02:06:16;;;;;;;2.72;1.05;;;21.20;53.60;;;;;;5096158;28;20074;-58
2021/08/06 02:08:53;;;;;;;2.75;0.90;;;21.20;51.90;;;;;;5101622;28;20543;-59
2021/08/06 02:11:44;;;;;;;3.08;0.88;;;21.30;53.60;;;;;;5077380;28;20600;-57
2021/08/06 02:14:21;;;;;;;2.70;1.40;;;21.30;51.90;;;;;;5080166;28;20483;-60
2021/08/06 02:16:53;;;;;;;2.50;0.70;;;21.40;51.80;;;;;;5102772;28;20031;-62
2021/08/06 02:19:26;;;;;;;1.95;0.70;;;21.50;53.30;;;;;;5087085;28;20023;-59
2021/08/06 02:22:01;;;;;;;4.75;1.58;;;21.40;53.50;;;;;;5096414;28;20031;-61
2021/08/06 02:24:44;;;;;;;1.63;0.85;;;21.50;52.00;;;;;;5101323;28;20099;-62
2021/08/06 02:27:21;;;;;;;1.63;0.80;;;21.50;52.10;;;;;;5102090;28;20033;-63
2021/08/06 02:30:09;;;;;;;3.70;0.70;;;21.60;52.80;;;;;;5103149;28;20031;-62
2021/08/06 02:35:33;;;;;;;5.20;1.60;;;21.80;52.20;;;;;;5076360;28;20040;-62
2021/08/06 02:38:08;;;;;;;4.20;1.63;;;21.80;52.50;;;;;;5075425;28;20028;-62
2021/08/06 02:40:38;;;;;;;4.93;2.20;;;22.00;51.70;;;;;;5070668;28;20227;-61
2021/08/06 02:43:49;;;;;;;5.80;2.05;;;22.00;50.90;;;;;;5069557;28;20048;-59
2021/08/06 02:46:39;;;;;;;8.35;4.05;;;22.10;50.90;;;;;;5071919;28;20043;-60
2021/08/06 02:49:10;;;;;;;7.95;4.22;;;22.20;52.40;;;;;;5072914;28;20059;-67
2021/08/06 02:51:43;;;;;;;8.27;4.30;;;22.20;52.40;;;;;;5074463;28;20051;-58
2021/08/06 02:54:13;;;;;;;8.45;4.00;;;22.40;52.20;;;;;;5074867;28;20585;-63
2021/08/06 02:56:40;;;;;;;5.95;3.58;;;22.40;52.00;;;;;;5070768;28;20432;-62
2021/08/06 02:59:10;;;;;;;6.93;3.63;;;22.40;52.20;;;;;;5079998;28;20048;-60
2021/08/06 03:01:40;;;;;;;6.63;3.92;;;22.50;50.90;;;;;;5074642;28;20500;-61
2021/08/06 03:04:17;;;;;;;6.28;2.92;;;22.50;50.20;;;;;;5075909;28;20043;-61
2021/08/06 03:07:07;;;;;;;6.18;3.42;;;22.50;49.20;;;;;;5076922;28;20070;-59
2021/08/06 03:09:46;;;;;;;7.95;3.88;;;22.50;51.00;;;;;;5057603;28;20059;-58
2021/08/06 03:12:36;;;;;;;6.03;3.13;;;22.60;52.00;;;;;;5069532;28;20033;-60
2021/08/06 03:15:21;;;;;;;9.38;3.42;;;22.70;49.20;;;;;;5072564;28;20042;-61
2021/08/06 03:18:11;;;;;;;;;;;;;;;;;;;;;
2021/08/06 03:20:43;;;;;;;7.45;3.13;;;22.80;48.90;;;;;;5005038;28;20056;-59
2021/08/06 03:23:32;;;;;;;11.75;2.60;;;22.70;50.20;;;;;;5076320;28;20037;-62
2021/08/06 03:26:11;;;;;;;4.68;2.40;;;22.80;49.60;;;;;;5066387;28;20111;-61
2021/08/06 03:28:56;;;;;;;6.68;2.55;;;22.80;50.40;;;;;;5072895;28;20035;-59
2021/08/06 03:31:35;;;;;;;5.82;2.70;;;22.80;50.00;;;;;;5079456;28;20047;-60
2021/08/06 03:34:13;;;;;;;3.42;2.20;;;22.80;51.20;;;;;;5091745;28;21162;-60
2021/08/06 03:36:52;;;;;;;11.15;6.38;;;22.70;51.40;;;;;;5090934;28;20039;-62
2021/08/06 03:39:32;;;;;;;24.00;13.38;;;22.90;51.40;;;;;;5092534;28;20031;-59
2021/08/06 03:42:05;;;;;;;45.28;25.60;;;23.00;51.20;;;;;;5096872;28;20031;-58
2021/08/06 03:44:35;;;;;;;54.83;29.67;;;22.90;51.10;;;;;;5098133;28;20076;-64
2021/08/06 03:47:03;;;;;;;89.47;46.65;;;23.00;49.30;;;;;;5099187;28;20039;-59
2021/08/06 03:49:37;;;;;;;80.07;44.22;;;22.90;51.50;;;;;;5099545;28;20385;-63
2021/08/06 03:55:03;;;;;;;99.68;57.00;;;23.20;49.40;;;;;;5064220;28;20411;-63
2021/08/06 03:58:08;;;;;;;122.57;73.38;;;23.40;50.60;;;;;;5094593;28;20020;-60
2021/08/06 04:03:29;;;;;;;;;;;23.60;50.20;;;;;;5076009;28;20059;-64
2021/08/06 04:05:56;;;;;;;135.18;83.68;;;23.50;50.60;;;;;;5092446;28;19915;-49
2021/08/06 04:08:52;;;;;;;87.10;56.05;;;23.40;50.90;;;;;;5095645;28;20051;-56
2021/08/06 04:11:22;;;;;;;87.75;53.42;;;23.40;48.50;;;;;;5078998;28;20051;-58
2021/08/06 04:14:14;;;;;;;113.53;69.40;;;23.60;49.30;;;;;;5092722;28;20487;-58
2021/08/06 04:17:00;;;;;;;95.68;60.40;;;23.60;50.10;;;;;;5090327;28;20035;-55
2021/08/06 04:19:27;;;;;;;106.95;67.03;;;23.70;49.90;;;;;;5075389;28;20055;-57
2021/08/06 04:22:06;;;;;;;86.68;56.53;;;23.70;50.30;;;;;;5095712;28;20042;-59
2021/08/06 04:24:36;;;;;;;91.43;54.50;;;23.70;49.60;;;;;;5099297;28;20038;-57
2021/08/06 04:27:13;;;;;;;100.68;65.57;;;23.70;49.00;;;;;;5097229;28;20490;-62
2021/08/06 04:29:56;;;;;;;63.78;41.53;;;23.70;50.20;;;;;;5105789;28;20078;-54
2021/08/06 04:32:38;;;;;;;86.93;56.22;;;23.90;48.40;;;;;;5107568;28;20047;-56
2021/08/06 04:35:12;;;;;;;69.63;42.45;;;23.90;49.40;;;;;;5103461;28;20476;-62
2021/08/06 04:37:53;;;;;;;88.57;56.35;;;23.90;47.30;;;;;;5108739;28;20123;-56
2021/08/06 04:40:26;;;;;;;61.45;40.92;;;23.80;48.40;;;;;;5108308;28;20051;-61
2021/08/06 04:46:01;;;;;;;85.00;55.13;;;23.80;50.00;;;;;;5098105;28;20039;-63
2021/08/06 04:48:32;;;;;;;66.72;43.60;;;23.90;49.50;;;;;;5108070;28;20042;-60
2021/08/06 04:51:10;;;;;;;82.28;53.65;;;23.90;48.50;;;;;;5108013;28;20031;-55
2021/08/06 04:53:49;;;;;;;83.68;54.10;;;23.90;49.90;;;;;;5108375;28;21186;-57
2021/08/06 04:56:19;;;;;;;75.00;48.67;;;23.80;49.90;;;;;;5107720;28;20053;-63
2021/08/06 04:58:49;;;;;;;60.17;41.42;;;23.70;49.60;;;;;;5105632;28;21249;-59
2021/08/06 05:01:39;;;;;;;;;;;;;;;;;;;;;
2021/08/06 05:04:10;;;;;;;76.50;50.80;;;23.80;49.00;;;;;;5100971;28;20569;-60
2021/08/06 05:06:47;;;;;;;65.53;43.65;;;23.90;49.80;;;;;;5111708;28;20047;-61
2021/08/06 05:09:18;;;;;;;62.97;40.80;;;23.80;49.90;;;;;;5112387;28;20030;-59
2021/08/06 05:11:46;;;;;;;69.27;46.57;;;24.00;48.80;;;;;;5112309;28;20085;-57
2021/08/06 05:14:35;;;;;;;69.03;45.17;;;23.90;49.80;;;;;;5111980;28;20260;-54
2021/08/06 05:17:11;;;;;;;73.50;45.00;;;23.80;50.00;;;;;;5103196;28;20347;-58
2021/08/06 05:19:49;;;;;;;66.28;44.97;;;23.70;48.00;;;;;;5092831;28;20032;-60
2021/08/06 05:22:40;;;;;;;60.80;41.92;;;23.70;49.60;;;;;;5094132;28;20024;-62
2021/08/06 05:25:16;;;;;;;47.47;32.00;;;23.70;50.20;;;;;;5094926;28;20050;-59
2021/08/06 05:27:51;;;;;;;61.58;40.55;;;23.70;49.90;;;;;;5106928;28;20055;-60
2021/08/06 05:30:38;;;;;;;52.45;37.30;;;23.70;50.00;;;;;;5087622;28;20135;-53
2021/08/06 05:33:05;;;;;;;53.83;36.58;;;23.70;49.90;;;;;;5101620;28;20024;-59
2021/08/06 05:35:42;;;;;;;54.42;34.40;;;23.60;49.80;;;;;;5096225;28;20097;-55
2021/08/06 05:38:44;;;;;;;48.75;32.50;;;23.60;49.40;;;;;;5106672;28;20149;-56
2021/08/06 05:41:15;;;;;;;40.20;27.90;;;23.60;50.10;;;;;;5100146;28;20032;-62
2021/08/06 05:44:07;;;;;;;51.38;34.00;;;23.60;49.40;;;;;;5076289;28;20300;-53
2021/08/06 05:46:40;;;;;;;53.40;35.10;;;23.70;50.10;;;;;;5098211;28;20107;-59
2021/08/06 05:49:16;;;;;;;49.20;33.78;;;23.70;50.30;;;;;;5092271;28;20016;-55
2021/08/06 05:51:49;;;;;;;52.15;35.00;;;23.60;50.30;;;;;;5076893;28;20042;-50
2021/08/06 05:54:20;;;;;;;46.78;32.22;;;23.60;49.90;;;;;;5106122;28;20085;-61
2021/08/06 05:56:58;;;;;;;45.63;30.67;;;23.60;50.20;;;;;;5101182;28;20100;-60
2021/08/06 06:00:00;;;;;;;48.25;32.65;;;23.50;50.00;;;;;;5091387;28;20028;-62
2021/08/06 06:02:39;;;;;;;48.70;30.53;;;23.50;50.30;;;;;;5092723;28;20503;-58
2021/08/06 06:05:10;;;;;;;39.83;28.52;;;23.50;50.40;;;;;;5094338;28;20027;-59
2021/08/06 06:07:53;;;;;;;41.97;29.40;;;23.40;50.30;;;;;;5100677;28;20042;-64
2021/08/06 06:10:37;;;;;;;41.72;29.25;;;23.40;49.80;;;;;;5090376;28;20039;-60
2021/08/06 06:13:16;;;;;;;31.52;22.02;;;23.30;50.30;;;;;;5093060;28;20431;-61
2021/08/06 06:16:11;;;;;;;37.83;27.50;;;23.20;49.10;;;;;;5078586;28;20539;-60
2021/08/06 06:18:44;;;;;;;39.25;27.88;;;23.00;50.10;;;;;;5090418;28;20114;-62
2021/08/06 06:21:14;;;;;;;45.15;30.08;;;22.90;50.10;;;;;;5080138;28;20051;-57
2021/08/06 06:23:48;;;;;;;35.63;22.55;;;22.60;51.30;;;;;;5093225;28;20015;-64
2021/08/06 06:26:35;;;;;;;36.65;25.92;;;22.40;50.60;;;;;;5094232;28;20080;-61
2021/08/06 06:29:11;;;;;;;38.55;27.42;;;22.20;51.60;;;;;;5078106;28;20119;-62
2021/08/06 06:31:46;;;;;;;28.10;17.08;;;21.90;53.00;;;;;;5097405;28;20709;-63
2021/08/06 06:34:18;;;;;;;32.72;22.73;;;21.70;52.60;;;;;;5095497;28;20073;-63
2021/08/06 06:36:48;;;;;;;30.00;19.98;;;21.50;53.40;;;;;;5096674;28;20027;-58
2021/08/06 06:39:36;;;;;;;35.72;25.33;;;21.30;52.60;;;;;;5092592;28;20059;-59
2021/08/06 06:42:16;;;;;;;32.95;22.90;;;21.10;54.30;;;;;;5098066;28;20027;-59
2021/08/06 06:44:58;;;;;;;30.63;21.23;;;20.80;55.80;;;;;;5097187;28;20091;-61
2021/08/06 06:47:34;;;;;;;32.38;22.63;;;20.80;56.10;;;;;;5095517;28;20367;-60
2021/08/06 06:50:50;;;;;;;33.72;20.83;;;20.60;56.00;;;;;;5065488;28;21224;-54
2021/08/06 06:53:47;;;;;;;31.67;21.88;;;20.50;56.90;;;;;;4982301;28;20039;-53
2021/08/06 06:56:42;;;;;;;32.58;21.92;;;20.20;57.60;;;;;;4982712;28;20026;-57
2021/08/06 06:59:18;;;;;;;27.17;21.23;;;20.20;57.60;;;;;;4978889;28;20449;-54
2021/08/06 07:02:01;;;;;;;;;;;;;;;;;;;;;
2021/08/06 07:04:52;;;;;;;29.73;20.88;;;20.00;58.30;;;;;;5048974;28;20034;-53
2021/08/06 07:07:26;;;;;;;31.92;19.92;;;19.90;58.10;;;;;;5054324;28;20051;-52
2021/08/06 07:10:07;;;;;;;32.97;19.10;;;19.70;58.40;;;;;;5097765;28;20177;-56
2021/08/06 07:13:00;;;;;;;29.65;20.55;;;19.70;58.20;;;;;;5091158;28;20039;-56
2021/08/06 07:15:45;;;;;;;;;;;;;;;;;;;;;
2021/08/06 07:18:18;;;;;;;26.40;18.23;;;19.60;59.50;;;;;;5086012;28;20036;-55
2021/08/06 07:21:05;;;;;;;29.60;18.73;;;19.40;59.80;;;;;;5090594;28;20789;-55
2021/08/06 07:23:49;;;;;;;26.20;19.40;;;19.40;60.40;;;;;;5095860;28;20039;-57
2021/08/06 07:26:31;;;;;;;27.35;16.23;;;19.30;60.30;;;;;;5091692;28;20065;-58
2021/08/06 07:28:58;;;;;;;;;;;19.30;60.20;;;;;;5098698;28;20122;-55
2021/08/06 07:31:34;;;;;;;28.42;15.65;;;19.20;60.50;;;;;;5093005;28;19924;-58
2021/08/06 07:37:26;;;;;;;23.17;16.60;;;19.20;60.80;;;;;;5057755;28;20357;-55
2021/08/06 07:40:18;;;;;;;23.98;17.75;;;19.00;61.10;;;;;;5090294;28;20032;-57
2021/08/06 07:42:50;;;;;;;;;;;18.90;61.30;;;;;;5088862;28;20108;-59
2021/08/06 07:45:46;;;;;;;23.38;15.43;;;19.00;60.90;;;;;;5093984;28;19988;-56
2021/08/06 07:48:17;;;;;;;24.30;17.77;;;18.90;61.00;;;;;;5094675;28;20039;-56
2021/08/06 07:51:13;;;;;;;25.63;15.00;;;18.90;61.30;;;;;;5100047;28;20573;-54
2021/08/06 07:53:46;;;;;;;26.58;18.02;;;18.80;60.90;;;;;;5100032;28;20027;-56
2021/08/06 07:56:24;;;;;;;24.42;16.05;;;18.80;61.60;;;;;;5096024;28;20039;-57
2021/08/06 07:59:01;;;;;;;26.45;14.63;;;18.70;61.70;;;;;;5077022;28;20063;-57
2021/08/06 08:01:42;;;;;;;28.67;17.13;;;18.70;62.50;;;;;;5080458;28;20066;-57
2021/08/06 08:04:18;;;;;;;24.83;15.90;;;18.70;62.20;;;;;;5094255;28;20040;-54
2021/08/06 08:06:50;;;;;;;24.60;14.65;;;18.60;62.50;;;;;;5096921;28;20020;-59
2021/08/06 08:09:40;;;;;;;23.08;15.45;;;18.60;62.60;;;;;;5096878;28;20024;-57
2021/08/06 08:12:38;;;;;;;21.02;15.13;;;18.50;62.90;;;;;;5084185;28;20048;-66
2021/08/06 08:15:38;;;;;;;;;;;;;;;;;;;;;
2021/08/06 08:25:12;;;;;;;20.90;14.07;;;18.40;62.70;;;;;;5085344;28;20035;-62
2021/08/06 08:28:40;;;;;;;18.58;11.18;;;18.40;62.40;;;;;;5048942;28;20069;-60
2021/08/06 08:31:48;;;;;;;;;;;;;;;;;;;;;
2021/08/06 08:34:36;;;;;;;20.52;11.65;;;18.40;62.40;;;;;;5016865;28;20072;-56
2021/08/06 08:37:37;;;;;;;19.35;13.77;;;18.40;62.70;;;;;;5024675;28;20029;-65
2021/08/06 08:40:31;;;;;;;19.70;12.52;;;18.30;62.30;;;;;;5029541;28;20040;-61
2021/08/06 08:43:19;;;;;;;19.00;13.63;;;18.30;62.60;;;;;;5021553;28;20083;-64
2021/08/06 08:49:11;;;;;;;18.38;12.52;;;18.30;63.10;;;;;;5032968;28;20032;-64
2021/08/06 08:52:49;;;;;;;;;;;;;;;;;;;;;
2021/08/06 08:55:28;;;;;;;22.98;14.70;;;18.20;63.10;;;;;;5049575;28;20044;-63
2021/08/06 08:58:30;;;;;;;17.05;12.52;;;18.10;62.50;;;;;;5062603;28;20470;-64
2021/08/06 09:01:31;;;;;;;18.35;13.00;;;18.10;62.70;;;;;;5033390;28;20125;-49
2021/08/06 09:04:28;;;;;;;19.42;13.80;;;18.10;62.60;;;;;;5050489;28;20040;-55
2021/08/06 09:07:05;;;;;;;19.60;11.25;;;18.10;63.00;;;;;;5057678;28;20029;-60
2021/08/06 09:09:44;;;;;;;21.30;13.35;;;18.10;63.00;;;;;;5062264;28;20024;-62
2021/08/06 09:12:31;;;;;;;18.75;12.55;;;18.00;62.80;;;;;;5055062;28;20059;-60
2021/08/06 09:15:41;;;;;;;18.85;13.13;;;18.00;62.70;;;;;;5061170;28;20036;-58
2021/08/06 09:22:13;;;;;;;17.27;11.75;;;18.00;61.80;;;;;;5039686;28;21421;-63
2021/08/06 09:25:24;;;;;;;21.25;13.07;;;18.00;62.30;;;;;;5057993;28;20139;-62
2021/08/06 09:28:22;;;;;;;;;;;;;;;;;;;;;
2021/08/06 09:31:16;;;;;;;19.23;12.55;;;17.90;61.90;;;;;;5062481;28;20046;-63
2021/08/06 09:34:01;;;;;;;;;;;;;;;;;;;;;
2021/08/06 09:36:38;;;;;;;14.50;10.00;;;17.90;61.60;;;;;;5086874;28;20054;-61
2021/08/06 09:39:27;;;;;;;15.95;11.25;;;17.90;62.10;;;;;;5094730;28;20031;-61
2021/08/06 09:42:26;;;;;;;17.25;12.00;;;17.90;62.20;;;;;;5094027;28;20107;-61
2021/08/06 09:45:18;;;;;;;19.33;10.75;;;17.90;62.40;;;;;;5074613;28;20054;-62
2021/08/06 09:48:08;;;;;;;;;;;;;;;;;;;;;
2021/08/06 09:50:49;;;;;;;14.85;11.38;;;17.80;62.50;;;;;;5050961;28;20046;-56
2021/08/06 09:53:52;;;;;;;17.52;12.07;;;17.80;61.50;;;;;;5079660;28;20043;-61
2021/08/06 09:56:37;;;;;;;19.05;12.60;;;17.70;62.60;;;;;;5060538;28;20036;-61
2021/08/06 09:59:25;;;;;;;18.15;11.15;;;17.70;62.60;;;;;;5084587;28;20031;-61
2021/08/06 10:02:37;;;;;;;12.63;9.88;;;17.70;62.20;;;;;;5086649;28;20792;-61
2021/08/06 10:05:26;;;;;;;13.25;9.88;;;17.70;62.30;;;;;;5079936;28;20038;-62
2021/08/06 10:08:17;;;;;;;;;;;;;;;;;;;;;
2021/08/06 10:10:58;;;;;;;14.80;9.95;;;17.70;62.70;;;;;;5090692;28;20044;-58
2021/08/06 10:13:42;;;;;;;14.98;11.25;;;17.70;62.50;;;;;;5098341;28;20027;-60
2021/08/06 10:16:56;;;;;;;13.05;10.13;;;17.60;62.80;;;;;;5097217;28;20575;-61
2021/08/06 10:19:39;;;;;;;13.60;10.52;;;17.60;63.00;;;;;;5095958;28;20479;-61
2021/08/06 10:22:16;;;;;;;15.35;10.05;;;17.60;63.00;;;;;;5092689;28;20028;-60
2021/08/06 10:25:03;;;;;;;14.57;10.35;;;17.60;63.00;;;;;;5093250;28;20169;-58
2021/08/06 10:27:44;;;;;;;14.35;10.18;;;17.50;63.60;;;;;;5092435;28;20024;-60
2021/08/06 10:30:59;;;;;;;13.57;9.18;;;17.50;62.70;;;;;;5093187;28;20028;-55
2021/08/06 10:33:38;;;;;;;11.63;9.02;;;17.50;63.00;;;;;;5055028;28;20036;-61
2021/08/06 10:39:49;;;;;;;13.85;9.05;;;17.50;62.80;;;;;;5034232;28;20505;-58
2021/08/06 10:43:33;;;;;;;;;;;;;;;;;;;;;
2021/08/06 10:45:58;;;;;;;13.48;8.85;;;17.50;63.10;;;;;;5082348;28;20032;-57
2021/08/06 10:49:11;;;;;;;12.10;9.55;;;17.40;63.10;;;;;;5079674;28;20026;-61
2021/08/06 10:52:18;;;;;;;11.95;8.98;;;17.40;63.10;;;;;;5090326;28;20096;-57
2021/08/06 10:54:47;;;;;;;11.43;8.73;;;17.40;63.20;;;;;;5075179;28;20032;-64
2021/08/06 10:57:47;;;;;;;11.18;8.50;;;17.30;63.20;;;;;;5089777;28;20110;-62
2021/08/06 11:00:57;;;;;;;10.63;7.30;;;17.40;63.00;;;;;;5097915;28;20032;-62
2021/08/06 11:03:56;;;;;;;11.75;8.35;;;17.30;63.00;;;;;;5094550;28;20522;-61
2021/08/06 11:07:08;;;;;;;10.38;8.05;;;17.30;63.10;;;;;;5045272;28;20040;-60
2021/08/06 11:09:38;;;;;;;13.63;8.80;;;17.30;63.00;;;;;;5050163;28;20170;-65
2021/08/06 11:12:50;;;;;;;11.32;8.10;;;17.30;63.20;;;;;;5100377;28;20104;-59
2021/08/06 11:15:58;;;;;;;11.80;7.75;;;17.30;62.80;;;;;;5026633;28;20140;-56
2021/08/06 11:19:31;;;;;;;12.35;7.93;;;17.20;63.10;;;;;;5031361;28;20042;-59
2021/08/06 11:22:09;;;;;;;12.65;8.35;;;17.10;62.60;;;;;;5085941;28;20096;-66
2021/08/06 11:25:06;;;;;;;11.20;7.55;;;17.20;63.10;;;;;;5094039;28;20024;-58
2021/08/06 11:27:39;;;;;;;10.43;7.50;;;17.20;63.20;;;;;;5092305;28;20382;-65
2021/08/06 11:30:20;;;;;;;14.50;7.55;;;17.10;63.40;;;;;;5096324;28;20139;-63
2021/08/06 11:35:58;;;;;;;10.50;6.68;;;17.00;62.90;;;;;;5512843;22;20045;-64
2021/08/06 11:38:29;;;;;;;9.65;7.65;;;17.00;63.70;;;;;;5007816;28;20044;-71
2021/08/06 11:41:11;;;;;;;8.82;6.57;;;17.00;63.50;;;;;;5029857;28;20026;-69
2021/08/06 11:44:02;;;;;;;10.75;6.78;;;17.00;63.60;;;;;;5032042;28;20040;-72
2021/08/06 11:46:37;;;;;;;8.77;6.90;;;17.00;63.50;;;;;;5020022;28;20529;-71
2021/08/06 11:49:20;;;;;;;8.77;6.38;;;17.00;63.60;;;;;;5030412;28;20037;-72
2021/08/06 11:51:57;;;;;;;9.32;7.22;;;16.90;63.30;;;;;;5030834;28;20137;-72
2021/08/06 11:54:28;;;;;;;8.18;5.60;;;16.90;63.60;;;;;;5031276;28;20084;-72
2021/08/06 11:57:14;;;;;;;9.68;6.97;;;16.90;63.60;;;;;;5033098;28;20022;-73
2021/08/06 11:59:51;;;;;;;12.30;6.45;;;16.90;63.70;;;;;;5024741;28;20022;-68
2021/08/06 12:02:29;;;;;;;;;;;;;;;;;;;;;
2021/08/06 12:05:25;;;;;;;8.60;6.53;;;16.80;63.70;;;;;;5034348;28;20024;-66
2021/08/06 12:07:59;;;;;;;8.55;5.80;;;16.80;63.70;;;;;;5027980;28;20548;-60
2021/08/06 12:10:41;;;;;;;8.73;6.60;;;16.80;63.70;;;;;;5028477;28;20034;-65
2021/08/06 12:13:33;;;;;;;;;;;16.80;63.80;;;;;;5028868;28;20021;-61
2021/08/06 12:16:17;;;;;;;9.48;6.43;;;16.80;63.90;;;;;;5031137;28;19967;-65
2021/08/06 12:18:51;;;;;;;11.02;6.93;;;16.70;63.80;;;;;;5022534;28;20052;-68
2021/08/06 12:21:44;;;;;;;7.72;5.45;;;16.80;63.70;;;;;;5031208;28;20476;-68
2021/08/06 12:24:21;;;;;;;8.80;6.28;;;16.70;63.80;;;;;;5029244;28;20037;-67
2021/08/06 12:27:00;;;;;;;6.85;5.78;;;16.70;63.80;;;;;;5029328;28;20029;-71
2021/08/06 12:29:43;;;;;;;6.35;5.40;;;16.70;63.60;;;;;;5021118;28;20017;-67
2021/08/06 12:32:43;;;;;;;8.40;5.95;;;16.70;63.90;;;;;;5029360;28;20045;-68
2021/08/06 12:38:29;;;;;;;7.03;5.63;;;16.70;63.90;;;;;;5014442;28;20038;-66
2021/08/06 12:40:59;;;;;;;6.55;5.07;;;16.70;64.10;;;;;;5014047;28;20045;-65
2021/08/06 12:43:35;;;;;;;5.95;4.50;;;16.60;64.00;;;;;;5030411;28;20025;-67
2021/08/06 12:46:33;;;;;;;6.55;5.20;;;16.60;64.00;;;;;;5029978;28;20033;-65
2021/08/06 12:49:37;;;;;;;9.55;5.65;;;16.60;64.00;;;;;;5015948;28;20045;-64
2021/08/06 12:52:17;;;;;;;7.93;4.97;;;16.60;64.30;;;;;;5027669;28;20046;-67
2021/08/06 12:55:16;;;;;;;6.25;4.85;;;16.60;64.10;;;;;;5027155;28;20029;-67
2021/08/06 12:58:09;;;;;;;;;;;;;;;;;;;;;
2021/08/06 13:00:46;;;;;;;7.50;5.07;;;16.50;64.10;;;;;;5015000;28;20116;-61
2021/08/06 13:03:32;;;;;;;6.57;4.75;;;16.50;64.30;;;;;;5030434;28;20021;-65
2021/08/06 13:06:22;;;;;;;7.63;4.57;;;16.50;64.30;;;;;;5011470;28;20112;-68
2021/08/06 13:08:49;;;;;;;7.32;4.93;;;16.50;64.30;;;;;;5027901;28;20037;-63
2021/08/06 13:11:18;;;;;;;6.13;4.47;;;16.50;64.30;;;;;;5028847;28;20042;-61
2021/08/06 13:13:48;;;;;;;6.43;4.43;;;16.50;64.40;;;;;;5029389;28;20025;-63
2021/08/06 13:16:19;;;;;;;5.53;4.43;;;16.50;64.40;;;;;;5029668;28;20438;-66
2021/08/06 13:18:48;;;;;;;5.60;4.30;;;16.50;64.40;;;;;;5025365;28;20471;-62
2021/08/06 13:21:16;;;;;;;7.63;4.00;;;16.50;64.40;;;;;;5028940;28;20147;-67
2021/08/06 13:23:45;;;;;;;6.93;5.03;;;16.40;64.30;;;;;;5029819;28;20375;-66
2021/08/06 13:26:12;;;;;;;8.52;5.35;;;16.40;64.40;;;;;;5029771;28;20120;-63
2021/08/06 13:28:40;;;;;;;5.05;4.20;;;16.40;64.30;;;;;;5015907;28;20379;-67
2021/08/06 13:31:08;;;;;;;5.22;4.10;;;16.40;64.30;;;;;;5035140;28;20025;-64
2021/08/06 13:33:35;;;;;;;5.45;4.20;;;16.40;64.40;;;;;;5034455;28;20104;-67
2021/08/06 13:36:03;;;;;;;6.70;4.30;;;16.40;64.40;;;;;;5030676;28;20391;-60
2021/08/06 13:38:31;;;;;;;8.55;3.97;;;16.30;64.30;;;;;;5029752;28;20041;-67
2021/08/06 13:40:58;;;;;;;5.65;4.07;;;16.40;64.30;;;;;;5035630;28;20487;-63
2021/08/06 13:43:26;;;;;;;5.00;4.13;;;16.30;64.20;;;;;;5036621;28;20032;-65
2021/08/06 13:45:54;;;;;;;4.82;3.80;;;16.30;64.30;;;;;;5035194;28;20030;-68
2021/08/06 13:48:21;;;;;;;4.78;4.07;;;16.30;64.30;;;;;;5035947;28;20052;-68
2021/08/06 13:50:49;;;;;;;4.10;3.42;;;16.30;64.90;;;;;;5036191;28;20115;-66
2021/08/06 13:53:16;;;;;;;6.68;4.18;;;16.30;64.20;;;;;;5033958;28;20017;-68
2021/08/06 13:55:44;;;;;;;5.90;3.92;;;16.20;64.20;;;;;;5034387;28;20028;-64
2021/08/06 13:58:11;;;;;;;4.85;3.60;;;16.20;64.10;;;;;;5024710;28;20022;-72
2021/08/06 14:00:38;;;;;;;6.28;4.03;;;16.30;64.20;;;;;;5035018;28;20071;-64
2021/08/06 14:03:06;;;;;;;6.05;3.83;;;16.30;64.20;;;;;;5034888;28;20029;-64
2021/08/06 14:05:33;;;;;;;5.40;3.80;;;16.30;64.30;;;;;;5028237;28;20048;-64
2021/08/06 14:08:01;;;;;;;3.97;3.42;;;16.20;64.40;;;;;;5033473;28;20025;-64
2021/08/06 14:10:28;;;;;;;4.85;3.83;;;16.20;64.30;;;;;;5030552;28;20057;-68
2021/08/06 14:12:55;;;;;;;5.65;3.60;;;16.20;64.30;;;;;;5029480;28;20101;-72
2021/08/06 14:15:23;;;;;;;5.28;3.70;;;16.20;64.40;;;;;;5035975;28;20022;-72
2021/08/06 14:17:53;;;;;;;4.15;3.15;;;16.10;64.40;;;;;;5032696;28;20033;-67
2021/08/06 14:20:21;;;;;;;5.85;3.85;;;16.10;64.50;;;;;;5032659;28;20020;-71
2021/08/06 14:22:48;;;;;;;4.47;3.03;;;16.10;64.50;;;;;;5032023;28;20025;-67
2021/08/06 14:25:15;;;;;;;4.10;3.08;;;16.00;64.50;;;;;;5035271;28;20057;-73
2021/08/06 14:27:43;;;;;;;4.85;3.10;;;16.00;64.60;;;;;;5028865;28;20075;-69
2021/08/06 14:30:11;;;;;;;3.65;3.10;;;16.00;64.60;;;;;;5028795;28;20458;-72
2021/08/06 14:32:38;;;;;;;4.80;3.15;;;15.90;64.70;;;;;;5028138;28;20036;-68
2021/08/06 14:35:17;;;;;;;4.65;3.10;;;15.90;64.80;;;;;;5026032;28;20064;-61
2021/08/06 14:37:52;;;;;;;6.25;3.15;;;15.90;65.10;;;;;;5012645;28;20033;-72
2021/08/06 14:40:38;;;;;;;4.80;3.30;;;15.80;65.40;;;;;;5032337;28;20049;-62
2021/08/06 14:43:05;;;;;;;5.22;3.25;;;15.80;65.70;;;;;;5022344;28;20056;-65
2021/08/06 14:45:32;;;;;;;6.22;3.85;;;15.80;65.90;;;;;;5027441;28;20138;-70
2021/08/06 14:48:00;;;;;;;4.72;3.25;;;15.80;66.00;;;;;;5026741;28;20663;-66
2021/08/06 14:50:28;;;;;;;4.80;3.30;;;15.70;66.20;;;;;;5026826;28;20041;-66